Time;durP1;ratioP1;P1;durP2;ratioP2;P2;SDS_P1;SDS_P2;PMS_P1;PMS_P2;Temp;Humidity;BMP_temperature;BMP_pressure;BME280_temperature;BME280_humidity;BME280_pressure;Samples;Min_cycle;Max_cycle;Signal;HPM_P1;HPM_P2
2021/07/07 00:01:57;;;;;;;0.77;0.70;;;21.80;72.10;;;;;;5114244;28;20077;-50
2021/07/07 00:04:23;;;;;;;0.85;0.63;;;21.80;72.10;;;;;;5116188;28;20111;-51
2021/07/07 00:06:49;;;;;;;1.48;0.63;;;21.80;72.10;;;;;;5116129;28;20044;-45
2021/07/07 00:09:15;;;;;;;0.60;0.60;;;21.80;72.10;;;;;;5115987;28;20047;-47
2021/07/07 00:11:40;;;;;;;0.70;0.50;;;21.80;72.10;;;;;;5114192;28;20097;-46
2021/07/07 00:14:06;;;;;;;1.10;0.70;;;21.80;72.10;;;;;;5115516;28;20541;-44
2021/07/07 00:16:35;;;;;;;0.65;0.65;;;21.80;72.10;;;;;;5116938;28;20048;-52
2021/07/07 00:19:01;;;;;;;0.40;0.40;;;21.80;72.20;;;;;;5116523;28;20483;-48
2021/07/07 00:21:27;;;;;;;0.82;0.60;;;21.80;72.10;;;;;;5115918;28;20051;-45
2021/07/07 00:23:52;;;;;;;0.40;0.40;;;21.80;72.20;;;;;;5113837;28;20051;-49
2021/07/07 00:26:18;;;;;;;1.55;0.60;;;21.80;72.20;;;;;;5115332;28;20100;-42
2021/07/07 00:28:44;;;;;;;0.65;0.40;;;21.80;72.20;;;;;;5115152;28;20048;-42
2021/07/07 00:31:10;;;;;;;0.70;0.50;;;21.80;72.20;;;;;;5115579;28;20043;-44
2021/07/07 00:33:35;;;;;;;0.95;0.50;;;21.80;72.20;;;;;;5113953;28;20055;-48
2021/07/07 00:36:01;;;;;;;0.57;0.47;;;21.80;72.20;;;;;;5115156;28;20052;-40
2021/07/07 00:38:28;;;;;;;0.70;0.50;;;21.70;72.10;;;;;;5115129;28;20496;-42
2021/07/07 00:40:56;;;;;;;1.60;0.43;;;21.80;72.20;;;;;;5115228;28;20051;-45
2021/07/07 00:43:22;;;;;;;0.60;0.60;;;21.80;72.20;;;;;;5113437;28;20047;-47
2021/07/07 00:45:47;;;;;;;2.80;0.75;;;21.70;72.20;;;;;;5114588;28;20197;-43
2021/07/07 00:48:13;;;;;;;1.30;0.75;;;21.70;72.20;;;;;;5115010;28;20051;-46
2021/07/07 00:50:41;;;;;;;0.70;0.40;;;21.70;72.20;;;;;;5115184;28;20241;-43
2021/07/07 00:53:09;;;;;;;0.50;0.50;;;21.70;72.20;;;;;;5114857;28;20157;-45
2021/07/07 00:55:35;;;;;;;0.55;0.55;;;21.70;72.20;;;;;;5112999;28;20385;-42
2021/07/07 00:58:02;;;;;;;0.40;0.40;;;21.70;72.20;;;;;;5094682;28;20044;-50
2021/07/07 01:00:28;;;;;;;0.65;0.52;;;21.70;72.20;;;;;;5093975;28;20249;-51
2021/07/07 01:02:56;;;;;;;0.93;0.63;;;21.70;72.20;;;;;;5094498;28;20067;-48
2021/07/07 01:05:22;;;;;;;0.22;0.22;;;21.70;72.20;;;;;;5095502;28;20040;-48
2021/07/07 01:07:48;;;;;;;0.98;0.55;;;21.70;72.20;;;;;;5094195;28;20109;-49
2021/07/07 01:10:15;;;;;;;0.45;0.45;;;21.70;72.30;;;;;;5093621;28;20105;-50
2021/07/07 01:12:42;;;;;;;0.60;0.40;;;21.70;72.20;;;;;;5094209;28;20048;-43
2021/07/07 01:15:10;;;;;;;0.55;0.55;;;21.70;72.30;;;;;;5094654;28;20056;-39
2021/07/07 01:17:37;;;;;;;1.30;0.82;;;21.70;72.30;;;;;;5093679;28;20055;-42
2021/07/07 01:20:07;;;;;;;0.93;0.63;;;21.70;72.30;;;;;;5093741;28;20040;-53
2021/07/07 01:22:33;;;;;;;0.55;0.55;;;21.70;72.30;;;;;;5093837;28;20040;-41
2021/07/07 01:24:59;;;;;;;0.50;0.50;;;21.70;72.30;;;;;;5093887;28;20051;-51
2021/07/07 01:27:28;;;;;;;0.68;0.60;;;21.70;73.00;;;;;;5094531;28;20081;-50
2021/07/07 01:29:54;;;;;;;0.70;0.70;;;21.70;72.30;;;;;;5093780;28;20464;-51
2021/07/07 01:32:20;;;;;;;0.85;0.80;;;21.70;72.30;;;;;;5093279;28;20501;-47
2021/07/07 01:34:45;;;;;;;0.47;0.47;;;21.70;72.30;;;;;;5093458;28;20055;-51
2021/07/07 01:37:12;;;;;;;0.90;0.60;;;21.70;72.30;;;;;;5094619;28;20476;-47
2021/07/07 01:39:38;;;;;;;0.50;0.47;;;21.60;72.30;;;;;;5093608;28;20139;-50
2021/07/07 01:42:03;;;;;;;0.70;0.70;;;21.70;72.30;;;;;;5093533;28;20077;-43
2021/07/07 01:44:29;;;;;;;1.23;0.73;;;21.60;72.30;;;;;;5093320;28;20063;-46
2021/07/07 01:46:55;;;;;;;1.00;0.57;;;21.60;72.30;;;;;;5093593;28;20079;-47
2021/07/07 01:49:21;;;;;;;0.73;0.50;;;21.60;72.30;;;;;;5094092;28;20510;-44
2021/07/07 01:51:47;;;;;;;0.60;0.60;;;21.60;72.30;;;;;;5093351;28;20542;-42
2021/07/07 01:54:13;;;;;;;0.65;0.60;;;21.60;72.30;;;;;;5093413;28;20062;-45
2021/07/07 01:56:39;;;;;;;0.70;0.50;;;21.60;72.30;;;;;;5093031;28;20058;-48
2021/07/07 01:59:05;;;;;;;0.93;0.70;;;21.60;72.30;;;;;;5094118;28;20052;-46
2021/07/07 02:01:31;;;;;;;0.65;0.55;;;21.60;72.40;;;;;;5094146;28;20089;-40
2021/07/07 02:03:57;;;;;;;0.95;0.63;;;21.60;72.30;;;;;;5092634;28;20056;-43
2021/07/07 02:06:22;;;;;;;1.58;0.70;;;21.60;72.40;;;;;;5093277;28;20112;-49
2021/07/07 02:08:48;;;;;;;0.40;0.40;;;21.60;72.40;;;;;;5094235;28;20128;-49
2021/07/07 02:11:14;;;;;;;0.82;0.60;;;21.60;72.40;;;;;;5093145;28;20056;-42
2021/07/07 02:13:40;;;;;;;1.40;0.90;;;21.60;72.40;;;;;;5093073;28;20106;-43
2021/07/07 02:16:06;;;;;;;0.50;0.50;;;21.60;72.40;;;;;;5092814;28;20366;-47
2021/07/07 02:18:32;;;;;;;0.65;0.60;;;21.60;72.40;;;;;;5092946;28;20048;-41
2021/07/07 02:20:59;;;;;;;0.50;0.50;;;21.60;72.40;;;;;;5074987;28;20044;-42
2021/07/07 02:23:26;;;;;;;0.60;0.60;;;21.50;72.40;;;;;;5105231;28;20063;-51
2021/07/07 02:25:51;;;;;;;0.80;0.50;;;21.60;72.50;;;;;;5113213;28;20035;-48
2021/07/07 02:28:24;;;;;;;0.57;0.57;;;21.60;72.50;;;;;;5113447;28;20039;-48
2021/07/07 02:30:50;;;;;;;0.70;0.60;;;21.50;72.40;;;;;;5111462;28;20077;-45
2021/07/07 02:33:16;;;;;;;0.98;0.82;;;21.60;72.50;;;;;;5113529;28;20503;-49
2021/07/07 02:35:43;;;;;;;0.95;0.80;;;21.60;72.50;;;;;;5113428;28;20054;-51
2021/07/07 02:38:12;;;;;;;0.82;0.60;;;21.50;72.40;;;;;;5113483;28;20039;-47
2021/07/07 02:40:38;;;;;;;0.95;0.70;;;21.50;72.40;;;;;;5111388;28;20040;-40
2021/07/07 02:43:05;;;;;;;0.60;0.60;;;21.50;72.40;;;;;;5112939;28;20052;-45
2021/07/07 02:45:32;;;;;;;0.60;0.60;;;21.50;72.40;;;;;;5112761;28;20176;-40
2021/07/07 02:47:58;;;;;;;0.60;0.60;;;21.50;72.40;;;;;;5112869;28;20043;-40
2021/07/07 02:50:24;;;;;;;0.77;0.68;;;21.50;72.50;;;;;;5112596;28;20044;-43
2021/07/07 02:52:52;;;;;;;0.50;0.50;;;21.50;72.40;;;;;;5110921;28;20513;-41
2021/07/07 02:55:19;;;;;;;0.43;0.43;;;21.50;72.50;;;;;;5094326;28;20091;-44
2021/07/07 02:58:03;;;;;;;0.75;0.75;;;21.50;72.50;;;;;;5112614;28;20058;-41
2021/07/07 03:00:48;;;;;;;0.77;0.73;;;21.50;72.40;;;;;;5112555;28;20341;-52
2021/07/07 03:03:19;;;;;;;0.50;0.50;;;21.50;72.50;;;;;;5110639;28;20048;-47
2021/07/07 03:05:49;;;;;;;1.23;0.70;;;21.50;72.50;;;;;;5092566;28;20056;-46
2021/07/07 03:08:16;;;;;;;0.68;0.68;;;21.50;72.50;;;;;;5090970;28;20051;-47
2021/07/07 03:10:43;;;;;;;0.50;0.50;;;21.50;73.10;;;;;;5091193;28;20048;-48
2021/07/07 03:13:10;;;;;;;0.60;0.60;;;21.50;72.50;;;;;;5092078;28;20070;-43
2021/07/07 03:15:37;;;;;;;1.85;0.90;;;21.50;72.50;;;;;;5091599;28;20447;-46
2021/07/07 03:18:04;;;;;;;0.70;0.60;;;21.50;72.50;;;;;;5091925;28;20048;-46
2021/07/07 03:20:30;;;;;;;0.60;0.60;;;21.50;72.50;;;;;;5091879;28;20086;-49
2021/07/07 03:22:57;;;;;;;0.70;0.70;;;21.50;72.50;;;;;;5091992;28;20047;-40
2021/07/07 03:25:23;;;;;;;0.75;0.68;;;21.50;72.50;;;;;;5092288;28;20051;-52
2021/07/07 03:27:49;;;;;;;0.60;0.50;;;21.50;72.60;;;;;;5091669;28;20124;-52
2021/07/07 03:30:17;;;;;;;0.50;0.50;;;21.50;72.60;;;;;;5091659;28;20064;-49
2021/07/07 03:32:43;;;;;;;0.50;0.50;;;21.50;72.60;;;;;;5091441;28;20046;-41
2021/07/07 03:35:09;;;;;;;1.00;0.70;;;21.50;72.60;;;;;;5099624;28;20048;-45
2021/07/07 03:37:35;;;;;;;0.95;0.73;;;21.40;72.50;;;;;;5111175;28;20562;-44
2021/07/07 03:40:05;;;;;;;1.10;1.00;;;21.50;72.60;;;;;;5111829;28;20059;-50
2021/07/07 03:42:31;;;;;;;0.65;0.50;;;21.50;72.60;;;;;;5112135;28;20449;-51
2021/07/07 03:44:58;;;;;;;0.70;0.65;;;21.50;72.60;;;;;;5110236;28;20130;-45
2021/07/07 03:47:25;;;;;;;0.70;0.70;;;21.40;72.60;;;;;;5111961;28;20054;-45
2021/07/07 03:49:51;;;;;;;0.75;0.55;;;21.40;72.50;;;;;;5111833;28;20116;-45
2021/07/07 03:52:17;;;;;;;0.65;0.65;;;21.40;72.60;;;;;;5111886;28;20492;-47
2021/07/07 03:54:43;;;;;;;0.55;0.50;;;21.40;72.50;;;;;;5111257;28;20048;-47
2021/07/07 03:57:08;;;;;;;0.77;0.70;;;21.40;72.50;;;;;;5109483;28;20530;-46
2021/07/07 03:59:35;;;;;;;0.90;0.80;;;21.40;72.60;;;;;;5111815;28;20050;-47
2021/07/07 04:02:01;;;;;;;0.75;0.60;;;21.40;72.50;;;;;;5111571;28;20055;-46
2021/07/07 04:04:27;;;;;;;0.50;0.50;;;21.50;72.70;;;;;;5111769;28;20048;-45
2021/07/07 04:06:57;;;;;;;0.50;0.50;;;21.40;72.60;;;;;;5109834;28;20062;-52
2021/07/07 04:09:30;;;;;;;1.48;0.47;;;21.50;72.60;;;;;;5103301;28;20488;-42
2021/07/07 04:11:56;;;;;;;0.60;0.60;;;21.40;72.60;;;;;;5091285;28;20051;-51
2021/07/07 04:14:24;;;;;;;0.77;0.70;;;21.40;72.60;;;;;;5091534;28;20130;-44
2021/07/07 04:16:56;;;;;;;0.50;0.50;;;21.40;72.60;;;;;;5092486;28;20044;-46
2021/07/07 04:19:22;;;;;;;1.20;0.75;;;21.40;72.60;;;;;;5091336;28;20512;-50
2021/07/07 04:21:49;;;;;;;0.57;0.57;;;21.40;72.60;;;;;;5091394;28;20044;-47
2021/07/07 04:24:16;;;;;;;1.20;0.82;;;21.40;72.60;;;;;;5091138;28;20052;-44
2021/07/07 04:26:42;;;;;;;0.60;0.60;;;21.40;72.70;;;;;;5091355;28;20097;-45
2021/07/07 04:29:08;;;;;;;0.65;0.52;;;21.40;72.60;;;;;;5092664;28;20075;-45
2021/07/07 04:31:35;;;;;;;0.60;0.60;;;21.40;72.60;;;;;;5091687;28;20469;-43
2021/07/07 04:34:02;;;;;;;0.65;0.60;;;21.40;72.60;;;;;;5091711;28;20423;-52
2021/07/07 04:36:28;;;;;;;0.50;0.50;;;21.40;72.70;;;;;;5091390;28;20080;-46
2021/07/07 04:38:53;;;;;;;0.93;0.80;;;21.40;72.60;;;;;;5092043;28;20044;-48
2021/07/07 04:41:19;;;;;;;1.08;0.90;;;21.40;72.70;;;;;;5091049;28;20052;-48
2021/07/07 04:43:45;;;;;;;0.77;0.77;;;21.40;72.70;;;;;;5091375;28;20093;-49
2021/07/07 04:46:11;;;;;;;0.60;0.60;;;21.40;72.70;;;;;;5095013;28;20048;-47
2021/07/07 04:48:37;;;;;;;0.80;0.70;;;21.40;72.70;;;;;;5096118;28;20082;-47
2021/07/07 04:51:02;;;;;;;0.63;0.63;;;21.40;72.70;;;;;;5095453;28;20048;-51
2021/07/07 04:53:28;;;;;;;0.70;0.70;;;21.40;72.70;;;;;;5095290;28;20126;-45
2021/07/07 04:55:54;;;;;;;0.77;0.70;;;21.40;72.70;;;;;;5094988;28;20454;-45
2021/07/07 04:58:20;;;;;;;0.70;0.70;;;21.40;72.70;;;;;;5096138;28;20137;-44
2021/07/07 05:00:45;;;;;;;0.65;0.65;;;21.30;72.70;;;;;;5094637;28;20040;-45
2021/07/07 05:03:11;;;;;;;1.08;0.70;;;21.30;72.70;;;;;;5094558;28;20056;-45
2021/07/07 05:05:37;;;;;;;0.68;0.68;;;21.40;72.70;;;;;;5094394;28;20117;-46
2021/07/07 05:08:04;;;;;;;0.82;0.80;;;21.30;72.70;;;;;;5095340;28;20052;-40
2021/07/07 05:10:31;;;;;;;0.60;0.60;;;21.40;72.70;;;;;;5094433;28;20115;-44
2021/07/07 05:12:58;;;;;;;0.98;0.52;;;21.30;72.70;;;;;;5111918;28;20058;-46
2021/07/07 05:15:24;;;;;;;0.50;0.50;;;21.30;72.70;;;;;;5114580;28;20151;-44
2021/07/07 05:17:50;;;;;;;0.60;0.60;;;21.30;72.70;;;;;;5114608;28;20136;-45
2021/07/07 05:20:17;;;;;;;0.80;0.80;;;21.30;72.70;;;;;;5112562;28;20043;-46
2021/07/07 05:22:43;;;;;;;0.60;0.60;;;21.30;72.70;;;;;;5114312;28;20046;-42
2021/07/07 05:25:15;;;;;;;1.08;0.68;;;21.30;72.70;;;;;;5114088;28;20441;-43
2021/07/07 05:27:41;;;;;;;0.50;0.50;;;21.40;72.70;;;;;;5113698;28;20055;-45
2021/07/07 05:30:07;;;;;;;0.68;0.57;;;21.30;73.40;;;;;;5106300;28;20059;-47
2021/07/07 05:32:33;;;;;;;0.90;0.75;;;21.30;72.70;;;;;;5093982;28;20052;-45
2021/07/07 05:35:00;;;;;;;0.65;0.65;;;21.30;73.40;;;;;;5093539;28;20048;-49
2021/07/07 05:37:26;;;;;;;0.80;0.77;;;21.40;72.80;;;;;;5094669;28;20398;-46
2021/07/07 05:39:53;;;;;;;0.60;0.60;;;21.30;72.70;;;;;;5093656;28;20097;-48
2021/07/07 05:42:20;;;;;;;0.60;0.60;;;21.30;72.70;;;;;;5093654;28;20076;-47
2021/07/07 05:44:48;;;;;;;0.60;0.60;;;21.30;72.70;;;;;;5093368;28;20093;-52
2021/07/07 05:47:14;;;;;;;0.52;0.50;;;21.30;72.80;;;;;;5093451;28;20396;-43
2021/07/07 05:49:41;;;;;;;0.75;0.60;;;21.30;72.80;;;;;;5094542;28;20044;-52
2021/07/07 05:52:07;;;;;;;0.50;0.50;;;21.40;72.80;;;;;;5093404;28;20047;-44
2021/07/07 05:54:33;;;;;;;0.50;0.50;;;21.30;72.70;;;;;;5093312;28;20044;-41
2021/07/07 05:56:59;;;;;;;0.73;0.63;;;21.40;72.80;;;;;;5093126;28;20617;-50
2021/07/07 05:59:25;;;;;;;0.77;0.68;;;21.30;72.70;;;;;;5093921;28;20051;-48
2021/07/07 06:01:50;;;;;;;0.57;0.52;;;21.30;72.80;;;;;;5092982;28;20044;-46
2021/07/07 06:04:16;;;;;;;0.63;0.63;;;21.30;72.70;;;;;;5093151;28;20066;-42
2021/07/07 06:06:42;;;;;;;0.52;0.40;;;21.30;72.80;;;;;;5093102;28;20144;-51
2021/07/07 06:09:08;;;;;;;0.75;0.75;;;21.30;72.80;;;;;;5093999;28;20040;-51
2021/07/07 06:11:34;;;;;;;0.93;0.80;;;21.30;72.70;;;;;;5100521;28;20071;-47
2021/07/07 06:14:01;;;;;;;0.55;0.55;;;21.30;72.80;;;;;;5113572;28;20072;-51
2021/07/07 06:16:27;;;;;;;1.35;1.00;;;21.40;72.80;;;;;;5112759;28;20047;-45
2021/07/07 06:18:53;;;;;;;0.60;0.60;;;21.30;72.80;;;;;;5113107;28;20048;-47
2021/07/07 06:21:19;;;;;;;0.55;0.55;;;21.30;72.70;;;;;;5111303;28;20443;-43
2021/07/07 06:23:44;;;;;;;0.50;0.50;;;21.30;72.70;;;;;;5112548;28;20039;-52
2021/07/07 06:26:11;;;;;;;0.60;0.60;;;21.30;72.70;;;;;;5112804;28;20503;-48
2021/07/07 06:28:37;;;;;;;0.75;0.70;;;21.30;72.70;;;;;;5112925;28;20051;-50
2021/07/07 06:31:03;;;;;;;0.45;0.45;;;21.30;72.70;;;;;;5110727;28;20043;-52
2021/07/07 06:33:28;;;;;;;0.63;0.50;;;21.30;72.70;;;;;;5112943;28;20069;-52
2021/07/07 06:35:54;;;;;;;1.17;0.70;;;21.30;72.70;;;;;;5113040;28;20039;-48
2021/07/07 06:38:20;;;;;;;0.65;0.50;;;21.30;72.70;;;;;;5113084;28;20100;-48
2021/07/07 06:40:46;;;;;;;0.70;0.70;;;21.30;72.70;;;;;;5112112;28;20052;-39
2021/07/07 06:43:13;;;;;;;0.65;0.65;;;21.30;72.70;;;;;;5105471;28;20078;-45
2021/07/07 06:45:39;;;;;;;0.80;0.80;;;21.30;72.70;;;;;;5112603;28;20465;-48
2021/07/07 06:48:07;;;;;;;0.60;0.57;;;21.30;72.60;;;;;;5113052;28;20052;-50
2021/07/07 06:50:33;;;;;;;0.63;0.63;;;21.30;72.70;;;;;;5113246;28;20066;-52
2021/07/07 06:53:00;;;;;;;0.45;0.45;;;21.30;72.60;;;;;;5111287;28;20051;-48
2021/07/07 06:55:26;;;;;;;0.35;0.35;;;21.30;72.60;;;;;;5112940;28;20040;-48
2021/07/07 06:57:53;;;;;;;0.47;0.47;;;21.30;72.60;;;;;;5112940;28;20071;-50
2021/07/07 07:00:19;;;;;;;0.60;0.60;;;21.40;72.60;;;;;;5112921;28;20115;-52
2021/07/07 07:02:45;;;;;;;0.80;0.80;;;21.30;72.60;;;;;;5110768;28;20035;-48
2021/07/07 07:05:14;;;;;;;0.60;0.60;;;21.30;72.60;;;;;;5113553;28;20066;-50
2021/07/07 07:07:41;;;;;;;0.57;0.57;;;21.30;72.60;;;;;;5112891;28;20039;-51
2021/07/07 07:10:09;;;;;;;0.50;0.40;;;21.40;72.60;;;;;;5112740;28;20063;-45
2021/07/07 07:12:35;;;;;;;0.63;0.50;;;21.40;72.60;;;;;;5112480;28;20129;-40
2021/07/07 07:15:04;;;;;;;1.13;0.55;;;21.40;72.50;;;;;;5107121;28;20132;-42
2021/07/07 07:17:30;;;;;;;0.50;0.50;;;21.40;72.50;;;;;;5107036;28;20108;-42
2021/07/07 07:19:56;;;;;;;0.47;0.40;;;21.40;72.50;;;;;;5112609;28;20039;-43
2021/07/07 07:22:22;;;;;;;0.50;0.50;;;21.40;72.50;;;;;;5112384;28;20479;-47
2021/07/07 07:24:49;;;;;;;0.55;0.50;;;21.40;72.50;;;;;;5110566;28;20061;-47
2021/07/07 07:27:16;;;;;;;0.77;0.55;;;21.40;72.50;;;;;;5112221;28;20090;-48
2021/07/07 07:29:43;;;;;;;0.50;0.50;;;21.40;72.50;;;;;;5112382;28;20151;-45
2021/07/07 07:32:09;;;;;;;0.40;0.40;;;21.40;72.50;;;;;;5112443;28;20048;-41
2021/07/07 07:34:35;;;;;;;0.70;0.68;;;21.40;72.50;;;;;;5110204;28;20048;-46
2021/07/07 07:37:03;;;;;;;0.55;0.52;;;21.40;72.50;;;;;;5112092;28;20582;-43
2021/07/07 07:39:39;;;;;;;0.70;0.60;;;21.40;72.40;;;;;;5111903;28;20046;-47
2021/07/07 07:42:05;;;;;;;0.50;0.50;;;21.40;72.40;;;;;;5112161;28;20455;-50
2021/07/07 07:44:31;;;;;;;0.70;0.50;;;21.40;72.40;;;;;;5111837;28;20047;-40
2021/07/07 07:46:58;;;;;;;0.57;0.47;;;21.40;72.40;;;;;;5110768;28;20083;-46
2021/07/07 07:49:25;;;;;;;1.02;0.55;;;21.50;72.40;;;;;;5111611;28;20047;-50
2021/07/07 07:51:50;;;;;;;0.40;0.40;;;21.50;72.40;;;;;;5112001;28;20077;-47
2021/07/07 07:54:17;;;;;;;0.50;0.50;;;21.50;72.30;;;;;;5111834;28;20075;-47
2021/07/07 07:56:43;;;;;;;0.50;0.50;;;21.50;72.30;;;;;;5110247;28;20043;-44
2021/07/07 07:59:09;;;;;;;0.50;0.50;;;21.50;72.30;;;;;;5103218;28;20135;-48
2021/07/07 08:01:35;;;;;;;0.57;0.57;;;21.50;72.30;;;;;;5091656;28;20044;-48
2021/07/07 08:04:03;;;;;;;0.50;0.50;;;21.50;72.20;;;;;;5091486;28;20385;-52
2021/07/07 08:06:29;;;;;;;0.60;0.52;;;21.50;72.20;;;;;;5092471;28;20047;-46
2021/07/07 08:08:54;;;;;;;1.83;0.63;;;21.50;72.20;;;;;;5091002;28;20048;-50
2021/07/07 08:11:21;;;;;;;0.82;0.70;;;21.50;72.20;;;;;;5091403;28;20177;-52
2021/07/07 08:13:47;;;;;;;0.88;0.60;;;21.50;72.10;;;;;;5091578;28;20056;-52
2021/07/07 08:16:13;;;;;;;0.75;0.60;;;21.60;72.20;;;;;;5091372;28;20065;-49
2021/07/07 08:18:40;;;;;;;0.52;0.52;;;21.50;72.10;;;;;;5092539;28;20081;-47
2021/07/07 08:21:07;;;;;;;0.57;0.57;;;21.60;72.10;;;;;;5102407;28;20074;-53
2021/07/07 08:23:34;;;;;;;0.50;0.50;;;21.60;72.10;;;;;;5115308;28;20048;-52
2021/07/07 08:26:00;;;;;;;0.52;0.50;;;21.60;72.10;;;;;;5115693;28;20043;-47
2021/07/07 08:28:26;;;;;;;0.50;0.50;;;21.60;72.00;;;;;;5107538;28;20381;-47
2021/07/07 08:31:12;;;;;;;0.77;0.77;;;21.70;72.10;;;;;;5079828;28;20059;-48
2021/07/07 08:33:38;;;;;;;0.75;0.57;;;21.60;72.00;;;;;;5095075;28;20115;-46
2021/07/07 08:36:04;;;;;;;0.57;0.50;;;21.70;72.00;;;;;;5094283;28;20069;-45
2021/07/07 08:38:30;;;;;;;0.50;0.50;;;21.70;72.00;;;;;;5095976;28;20040;-48
2021/07/07 08:40:55;;;;;;;0.50;0.50;;;21.70;72.00;;;;;;5095142;28;20086;-49
2021/07/07 08:43:24;;;;;;;0.57;0.57;;;21.70;72.00;;;;;;5095087;28;20048;-52
2021/07/07 08:45:53;;;;;;;0.45;0.45;;;21.70;72.00;;;;;;5094760;28;20488;-50
2021/07/07 08:48:19;;;;;;;0.60;0.60;;;21.70;71.90;;;;;;5094733;28;20044;-50
2021/07/07 08:50:45;;;;;;;0.60;0.60;;;21.70;72.00;;;;;;5095822;28;20044;-49
2021/07/07 08:53:15;;;;;;;0.50;0.50;;;21.70;71.90;;;;;;5094369;28;20066;-47
2021/07/07 08:55:47;;;;;;;0.43;0.43;;;21.70;71.90;;;;;;5094567;28;20044;-46
2021/07/07 08:58:12;;;;;;;0.40;0.40;;;21.70;71.90;;;;;;5094678;28;20052;-50
2021/07/07 09:00:40;;;;;;;0.35;0.35;;;21.80;71.90;;;;;;5095730;28;20403;-46
2021/07/07 09:03:08;;;;;;;0.40;0.40;;;21.80;71.90;;;;;;5094671;28;20149;-47
2021/07/07 09:05:57;;;;;;;0.40;0.40;;;21.80;71.90;;;;;;5094389;28;20185;-48
2021/07/07 09:08:38;;;;;;;0.63;0.50;;;21.80;71.90;;;;;;5076040;28;20081;-49
2021/07/07 09:11:24;;;;;;;0.70;0.55;;;21.80;71.90;;;;;;5103114;28;20135;-49
2021/07/07 09:13:51;;;;;;;;;;;21.80;71.90;;;;;;5115293;28;20044;-47
2021/07/07 09:16:19;;;;;;;0.55;0.45;;;21.80;71.90;;;;;;5115031;28;19920;-48
2021/07/07 09:18:51;;;;;;;0.68;0.50;;;21.80;71.90;;;;;;5114826;28;20048;-43
2021/07/07 09:21:29;;;;;;;0.55;0.50;;;21.80;71.90;;;;;;5113413;28;20084;-49
2021/07/07 09:23:56;;;;;;;0.30;0.30;;;21.90;71.90;;;;;;5114328;28;20052;-52
2021/07/07 09:26:34;;;;;;;0.40;0.40;;;21.80;71.80;;;;;;5114765;28;20054;-48
2021/07/07 09:29:52;;;;;;;0.82;0.60;;;21.90;71.90;;;;;;5099990;28;20051;-46
2021/07/07 09:32:49;;;;;;;0.55;0.40;;;21.90;71.90;;;;;;5097647;28;20048;-46
2021/07/07 09:35:20;;;;;;;0.40;0.40;;;21.90;71.90;;;;;;5114515;28;20059;-46
2021/07/07 09:37:51;;;;;;;1.15;0.45;;;21.90;71.90;;;;;;5114326;28;20051;-46
2021/07/07 09:40:17;;;;;;;0.52;0.40;;;21.90;71.90;;;;;;5114186;28;20052;-45
2021/07/07 09:42:45;;;;;;;0.65;0.60;;;21.90;71.80;;;;;;5112379;28;20044;-49
2021/07/07 09:45:18;;;;;;;0.55;0.55;;;22.00;71.90;;;;;;5114130;28;20062;-45
2021/07/07 09:47:44;;;;;;;0.75;0.38;;;22.00;71.80;;;;;;5114191;28;20051;-47
2021/07/07 09:50:12;;;;;;;0.45;0.40;;;22.00;71.80;;;;;;5114307;28;20120;-45
2021/07/07 09:52:58;;;;;;;0.50;0.50;;;22.00;71.80;;;;;;5096886;28;20500;-45
2021/07/07 09:55:26;;;;;;;0.47;0.47;;;22.00;71.80;;;;;;5094509;28;20063;-45
2021/07/07 09:57:52;;;;;;;0.47;0.40;;;22.00;71.80;;;;;;5113638;28;20055;-46
2021/07/07 10:00:21;;;;;;;0.35;0.35;;;22.00;71.70;;;;;;5113546;28;20443;-46
2021/07/07 10:02:52;;;;;;;1.10;0.30;;;22.10;71.80;;;;;;5114026;28;20059;-51
2021/07/07 10:05:40;;;;;;;0.60;0.60;;;22.10;71.80;;;;;;5078898;28;20527;-46
2021/07/07 10:08:25;;;;;;;0.40;0.40;;;22.10;71.70;;;;;;5078153;28;20048;-46
2021/07/07 10:10:56;;;;;;;0.73;0.40;;;22.10;71.70;;;;;;5092899;28;20051;-50
2021/07/07 10:13:23;;;;;;;0.43;0.40;;;22.10;71.70;;;;;;5093156;28;20044;-46
2021/07/07 10:16:08;;;;;;;0.28;0.28;;;22.20;71.70;;;;;;5078916;28;20058;-42
2021/07/07 10:18:54;;;;;;;0.30;0.30;;;22.10;71.60;;;;;;5077828;28;20520;-50
2021/07/07 10:21:21;;;;;;;0.60;0.60;;;22.20;71.60;;;;;;5092868;28;20101;-47
2021/07/07 10:23:48;;;;;;;0.57;0.45;;;22.20;71.50;;;;;;5093160;28;20052;-43
2021/07/07 10:26:15;;;;;;;0.65;0.50;;;22.20;71.50;;;;;;5093475;28;20044;-44
2021/07/07 10:28:42;;;;;;;0.60;0.40;;;22.20;71.50;;;;;;5092357;28;20055;-47
2021/07/07 10:31:08;;;;;;;0.50;0.50;;;22.20;71.40;;;;;;5092779;28;20044;-47
2021/07/07 10:33:37;;;;;;;0.65;0.57;;;22.30;71.40;;;;;;5092614;28;20074;-47
2021/07/07 10:36:22;;;;;;;0.55;0.50;;;22.30;72.10;;;;;;5093601;28;20449;-49
2021/07/07 10:39:01;;;;;;;0.30;0.30;;;22.30;71.30;;;;;;5093818;28;20044;-48
2021/07/07 10:41:41;;;;;;;0.30;0.30;;;22.30;71.30;;;;;;5091766;28;20063;-50
2021/07/07 10:44:08;;;;;;;0.43;0.43;;;22.30;71.30;;;;;;5092139;28;20127;-53
2021/07/07 10:47:00;;;;;;;0.70;0.40;;;22.30;71.30;;;;;;5093521;28;20048;-53
2021/07/07 10:49:46;;;;;;;0.45;0.45;;;22.30;71.20;;;;;;5092362;28;20044;-52
2021/07/07 10:52:13;;;;;;;;;;;22.40;71.20;;;;;;5092934;28;20056;-54
2021/07/07 10:54:41;;;;;;;0.43;0.40;;;22.40;71.10;;;;;;5092225;28;20010;-46
2021/07/07 10:57:09;;;;;;;0.60;0.60;;;22.40;71.10;;;;;;5092682;28;20046;-51
2021/07/07 10:59:35;;;;;;;0.80;0.40;;;22.40;71.20;;;;;;5092350;28;20048;-52
2021/07/07 11:02:23;;;;;;;0.77;0.50;;;22.40;71.10;;;;;;5092024;28;20079;-48
2021/07/07 11:04:51;;;;;;;0.50;0.50;;;22.50;71.00;;;;;;5091901;28;20121;-45
2021/07/07 11:07:27;;;;;;;0.30;0.30;;;22.50;71.00;;;;;;5094501;28;20433;-52
2021/07/07 11:09:56;;;;;;;0.75;0.63;;;22.50;71.00;;;;;;5112328;28;20039;-51
2021/07/07 11:12:40;;;;;;;0.28;0.28;;;22.50;71.00;;;;;;5112294;28;20067;-52
2021/07/07 11:15:09;;;;;;;0.30;0.30;;;22.50;70.90;;;;;;5112284;28;20596;-54
2021/07/07 11:17:39;;;;;;;0.50;0.50;;;22.50;70.80;;;;;;5093716;28;20040;-47
2021/07/07 11:20:09;;;;;;;0.55;0.50;;;22.50;70.80;;;;;;5111541;28;20040;-51
2021/07/07 11:22:37;;;;;;;0.77;0.63;;;22.50;70.80;;;;;;5112333;28;20050;-49
2021/07/07 11:25:08;;;;;;;0.50;0.50;;;22.50;70.70;;;;;;5112357;28;20119;-48
2021/07/07 11:27:35;;;;;;;0.65;0.65;;;22.60;70.80;;;;;;5112109;28;20051;-53
2021/07/07 11:30:11;;;;;;;0.40;0.40;;;22.60;70.70;;;;;;5110155;28;20050;-50
2021/07/07 11:32:46;;;;;;;0.45;0.30;;;22.60;70.70;;;;;;5102685;28;20051;-49
2021/07/07 11:35:31;;;;;;;0.43;0.40;;;22.60;70.70;;;;;;5092113;28;20469;-52
2021/07/07 11:38:18;;;;;;;0.55;0.55;;;22.60;70.60;;;;;;5091971;28;20044;-50
2021/07/07 11:40:44;;;;;;;0.43;0.40;;;22.60;71.30;;;;;;5092763;28;20052;-52
2021/07/07 11:43:17;;;;;;;0.80;0.80;;;22.60;70.60;;;;;;5092178;28;20151;-50
2021/07/07 11:45:53;;;;;;;0.70;0.40;;;22.60;71.20;;;;;;5091656;28;20059;-47
2021/07/07 11:48:37;;;;;;;0.40;0.40;;;22.70;71.20;;;;;;5092287;28;20064;-51
2021/07/07 11:51:14;;;;;;;1.88;0.50;;;22.70;70.50;;;;;;5092847;28;20086;-49
2021/07/07 11:53:53;;;;;;;0.82;0.50;;;22.70;70.40;;;;;;5092957;28;20051;-43
2021/07/07 11:56:20;;;;;;;0.52;0.50;;;22.70;70.40;;;;;;5095967;28;20461;-44
2021/07/07 11:58:47;;;;;;;0.82;0.52;;;22.70;70.40;;;;;;5095993;28;20063;-47
2021/07/07 12:01:17;;;;;;;0.70;0.60;;;22.70;70.30;;;;;;5096390;28;20051;-51
2021/07/07 12:03:55;;;;;;;0.63;0.60;;;22.80;70.40;;;;;;5095669;28;20512;-45
2021/07/07 12:06:28;;;;;;;0.98;0.50;;;22.80;70.40;;;;;;5095518;28;20054;-49
2021/07/07 12:08:54;;;;;;;0.82;0.52;;;22.80;70.40;;;;;;5095603;28;20044;-46
2021/07/07 12:11:20;;;;;;;0.38;0.38;;;22.80;70.40;;;;;;5096577;28;20044;-48
2021/07/07 12:13:48;;;;;;;0.43;0.43;;;22.80;70.30;;;;;;5095462;28;20048;-44
2021/07/07 12:16:33;;;;;;;0.50;0.35;;;22.80;70.30;;;;;;5115263;28;20131;-53
2021/07/07 12:19:07;;;;;;;0.40;0.40;;;22.80;70.30;;;;;;5115774;28;20058;-53
2021/07/07 12:21:35;;;;;;;0.50;0.50;;;22.80;70.30;;;;;;5113742;28;20130;-42
2021/07/07 12:24:05;;;;;;;1.05;0.60;;;22.80;70.30;;;;;;5115708;28;20411;-46
2021/07/07 12:26:33;;;;;;;0.60;0.60;;;22.80;70.30;;;;;;5115544;28;20484;-49
2021/07/07 12:29:00;;;;;;;0.60;0.60;;;22.80;70.30;;;;;;5115484;28;20063;-49
2021/07/07 12:31:37;;;;;;;1.00;0.60;;;22.80;70.30;;;;;;5115079;28;20050;-48
2021/07/07 12:34:05;;;;;;;0.50;0.50;;;22.90;70.20;;;;;;5113273;28;20156;-50
2021/07/07 12:36:33;;;;;;;0.65;0.50;;;22.80;70.20;;;;;;5114862;28;20051;-47
2021/07/07 12:39:00;;;;;;;0.40;0.40;;;22.90;70.20;;;;;;5115241;28;20069;-48
2021/07/07 12:41:37;;;;;;;0.75;0.75;;;22.90;70.20;;;;;;5115080;28;20040;-50
2021/07/07 12:44:15;;;;;;;1.08;0.60;;;22.90;70.20;;;;;;5104510;28;20071;-47
2021/07/07 12:46:49;;;;;;;0.55;0.55;;;22.80;70.10;;;;;;5094710;28;20071;-47
2021/07/07 12:49:22;;;;;;;0.50;0.50;;;22.90;70.10;;;;;;5094656;28;20070;-48
2021/07/07 12:51:50;;;;;;;0.75;0.50;;;22.90;70.10;;;;;;5094672;28;20055;-48
2021/07/07 12:54:21;;;;;;;0.57;0.57;;;22.90;70.10;;;;;;5095817;28;20494;-45
2021/07/07 12:57:00;;;;;;;0.70;0.65;;;22.90;70.10;;;;;;5094574;28;20052;-46